Warning: Javascript must be enabled to use all the features on this page!


Page Loading - Please Wait...

Click to hideNews Bulletins

Peak Streamflow for the Nation

USGS 01477120 Raccoon Creek near Swedesboro NJ

Gloucester County, New Jersey
Hydrologic Unit Code 02040202
Latitude  39°44'26", Longitude  75°15'33" NAD83
Drainage area 26.9  square miles
Gage datum 0.00 feet above NGVD29
Output formats
Table
Graph
Tab-separated file
peakfq (watstore) format
Reselect output format
Water
Year
Date Gage
Height
(feet)
Stream-
flow
(cfs)
1967 1967-08-10 17.44 3,530
1968 1968-01-15 13.10 544
1969 1969-07-28 13.19 869
1970 1970-05-27 13.14 886
1971 1971-08-28 15.69 2,060
1972 1972-07-13 12.89 806
1973 1973-02-02 13.06 874
1974 1973-12-21 10.88 366
1975 1975-07-15 13.83 1,170
1976 1976-01-28 11.98 563
1977 1977-03-22 10.38 295
1978 1978-01-26 14.62 1,520
1979 1979-02-25 13.67 1,100
1980 1979-10-10 10.16 268
1981 1980-10-25 11.35 447
1982 1982-06-14 11.52 478
1983 1983-04-16 14.40 1,410
1984 1984-04-05 12.95 840
1985 1985-08-01 13.10 890
1986 1986-01-26 11.08 399
1987 1986-12-25 12.83 803
1988 1988-02-12 11.80 532
1989 1989-07-05 15.04 1,670
1990 1989-10-20 11.69 510
1991 1991-01-12 12.07 590
1992 1991-12-03 9.57 202
1993 1992-12-11 12.13 605
1994 1994-03-10 12.45 691
1995 1995-03-09 11.32 319
1996 1996-01-19 13.54 1,030
1997 1996-12-14 13.59 1,050
1998 1998-01-24 11.97 436
1999 1999-09-16 15.28 1,720
2000 2000-03-22 14.42 1,290
2001 2001-03-30 13.11 787
2002 2002-06-14 9.78 147
2003 2003-02-23 13.27 839
2004 2004-02-07 14.05 1,020
2005 2005-04-02 13.79 894
2006 2006-07-06 14.32 1,130
2007 2007-04-15 14.49 1,150
2008 2008-08-11 13.13 612
2009 2008-12-12 12.92 549
2010 2010-03-13 13.90 886
2011 2011-08-28 18.68 5,510
2012 2011-12-08 13.59 798
2013 2013-09-02 15.24 1,640
2014 2014-04-30 14.43 1,170
2015 2015-01-18 13.71 845
2016 2016-05-30 12.20 317
2017 2017-07-25 13.07 516
2018 2018-02-12 13.81 784
2019 2018-11-25 13.62 707